Impacts TAF Board
For situational awareness. Not to be used for flight planning purposes.
IDs:

KSEA - Seattle-Tacoma Intl, WA, US

Issued at 0906 UTC 28 Sep 2021
Updated at 0954 UTC 28 Sep 2021
Potential Impact None Slight Moderate High
Time0853Z 28/10Z 28/11Z 28/12Z 28/13Z 28/14Z 28/15Z 28/16Z 28/17Z 28/18Z 28/19Z 28/20Z 28/21Z 28/22Z>>
Type OBS PRVL PRVL PRVL PRVL PRVL PRVL PRVL PRVL PRVL PRVL PRVL PRVL PRVL
VIS 10 >6 5 5 5 >6 >6 >6 >6 >6 >6 >6 >6 >6
CIG 31 35 15 15 15 20 20 20 20 20 20 20 20 20
Cover OVC OVC OVC OVC OVC OVC OVC OVC OVC OVC OVC OVC OVC OVC
FltCat VFR VFR MVFR MVFR MVFR MVFR MVFR MVFR MVFR MVFR MVFR MVFR MVFR MVFR
WX -- VCSH -SHRA BR -SHRA BR -SHRA BR VCSH VCSH VCSH VCSH VCSH VCSH VCSH VCSH VCSH
WDir 180 180 190 190 190 200 200 200 200 200 200 200 200 210
WSpd 10 11 11 11 11 12 12 12 12 12 12 12 12 10
WGst 19 20 -- -- -- -- -- -- -- -- -- -- -- --
Raw TAF
KSEA 280906Z 2809/2912 18011G20KT P6SM VCSH BKN035 OVC050
  FM281100 19011KT 5SM -SHRA BR BKN015 OVC030
  FM281400 20012KT P6SM VCSH OVC020
  FM282200 21010KT P6SM VCSH BKN020 OVC035
  FM290300 22008KT P6SM BKN035 OVC060


Raw METAR
KSEA 280853Z 18010G19KT 10SM BKN031 BKN038 OVC047 11/09 A2989 RMK AO2 RAB00E39 SLP128 P0005 60006 T01110089 53008
KSEA 280846Z 19009KT 10SM FEW025 BKN031 OVC048 11/09 A2989 RMK AO2 RAB00E39 P0005 T01110089
KSEA 280753Z 17009KT 10SM BKN028 BKN036 BKN060 12/09 A2988 RMK AO2 SLP125 T01170089 401560106
KSEA 280653Z 17011KT 10SM SCT038 BKN055 OVC100 12/09 A2987 RMK AO2 RAB11E47 SLP120 P0001 T01170089

METAR Board
Radar Display
Forecast Discussion
For situational awareness. Not to be used for flight planning purposes.